createdAt,value
2023-03-08T00:54:55.922Z,0.50
2023-03-08T00:55:56.873Z,0.50
2023-03-08T00:56:56.866Z,0.50
2023-03-08T00:57:56.850Z,0.50
2023-03-08T00:58:56.847Z,0.50
2023-03-08T00:59:56.836Z,0.50
2023-03-08T01:00:56.872Z,0.40
2023-03-08T01:01:56.829Z,0.35
2023-03-08T01:02:56.807Z,0.34
2023-03-08T01:03:56.823Z,0.34
2023-03-08T01:04:56.793Z,0.35
2023-03-08T01:05:56.788Z,0.37
2023-03-08T01:06:56.777Z,0.42
2023-03-08T01:07:56.763Z,0.46
2023-03-08T01:08:56.754Z,0.50
2023-03-08T01:09:56.751Z,0.50
2023-03-08T01:11:56.731Z,0.50
2023-03-08T01:12:56.729Z,0.50
2023-03-08T01:13:56.716Z,0.50
2023-03-08T01:14:56.698Z,0.51
2023-03-08T01:15:56.709Z,0.50
2023-03-08T01:16:56.687Z,0.50
2023-03-08T01:17:56.675Z,0.50
2023-03-08T01:18:56.669Z,0.50
2023-03-08T01:19:56.668Z,0.51
2023-03-08T01:20:56.653Z,0.50
2023-03-08T01:21:56.639Z,0.51
2023-03-08T01:22:56.637Z,0.50
2023-03-08T01:23:56.625Z,0.50
2023-03-08T01:24:56.619Z,0.50
2023-03-08T01:25:56.606Z,0.51
2023-03-08T01:26:56.622Z,0.51
2023-03-08T01:27:56.591Z,0.50
2023-03-08T01:28:56.586Z,0.50
2023-03-08T01:29:56.574Z,0.50
2023-03-08T01:30:56.568Z,0.51
2023-03-08T01:31:56.561Z,0.50
2023-03-08T01:32:56.544Z,0.51
2023-03-08T01:33:56.539Z,0.50
2023-03-08T01:34:56.533Z,0.50
2023-03-08T01:35:56.555Z,0.51
2023-03-08T01:36:56.521Z,0.51
2023-03-08T01:37:56.509Z,0.51
2023-03-08T01:38:56.495Z,0.50
2023-03-08T01:39:56.484Z,0.50
2023-03-08T01:40:56.478Z,0.50
2023-03-08T01:42:56.480Z,0.50
2023-03-08T04:26:55.009Z,0.52
2023-03-08T06:41:53.817Z,0.50
2023-03-08T07:00:53.691Z,0.64
2023-03-08T07:02:53.689Z,0.82
2023-03-08T07:08:53.607Z,1.90
2023-03-08T07:09:53.607Z,1.85
2023-03-08T07:15:53.607Z,1.80
2023-03-08T07:17:53.512Z,1.77
2023-03-08T07:23:53.469Z,1.70
2023-03-08T07:46:53.339Z,0.97
2023-03-08T07:52:08.816Z,1.00
2023-03-08T07:55:53.200Z,0.72
2023-03-08T08:11:53.090Z,0.62
2023-03-08T08:25:52.900Z,0.51
2023-03-08T08:29:52.873Z,0.50
2023-03-08T08:30:52.863Z,0.53
2023-03-08T08:38:08.470Z,0.67
2023-03-08T08:39:00.188Z,0.67
2023-03-08T08:57:53.250Z,1.12
2023-03-08T08:59:52.603Z,1.16
2023-03-08T09:02:53.048Z,1.18
2023-03-08T09:12:09.504Z,0.50
2023-03-08T09:13:10.542Z,0.50
2023-03-08T09:14:10.495Z,0.50
2023-03-08T09:15:10.478Z,0.50
2023-03-08T09:16:10.581Z,0.50
2023-03-08T09:17:10.465Z,0.50
2023-03-08T09:18:10.457Z,0.50
2023-03-08T09:19:11.450Z,0.53
2023-03-08T09:20:10.449Z,0.52
2023-03-08T09:21:10.428Z,0.54
2023-03-08T09:22:10.471Z,0.53
2023-03-08T09:23:10.500Z,0.52
2023-03-08T09:24:10.417Z,0.51
2023-03-08T09:25:10.417Z,0.55
2023-03-08T09:26:10.386Z,0.57
2023-03-08T09:27:10.486Z,0.55
2023-03-08T09:28:10.367Z,0.53
2023-03-08T09:29:10.395Z,0.50
2023-03-08T09:30:10.374Z,0.52
2023-03-08T09:31:10.340Z,0.51
2023-03-08T09:32:10.665Z,0.50
2023-03-08T09:33:10.327Z,0.50
2023-03-08T09:34:10.318Z,0.51
2023-03-08T09:35:10.312Z,0.50
2023-03-08T09:36:10.315Z,0.53
2023-03-08T09:37:10.294Z,0.62
2023-03-08T09:38:10.483Z,0.59
2023-03-08T09:39:10.308Z,0.59
2023-03-08T09:40:10.302Z,0.64
2023-03-08T09:41:10.314Z,0.57
2023-03-08T09:42:10.251Z,0.59
2023-03-08T09:43:10.693Z,0.65
2023-03-08T09:44:11.586Z,0.60
2023-03-08T09:45:13.440Z,0.54
2023-03-08T09:46:10.261Z,0.46
2023-03-08T09:47:10.220Z,0.43
2023-03-08T09:48:10.241Z,0.38
2023-03-08T09:49:10.547Z,0.40
2023-03-08T09:50:10.196Z,0.36
2023-03-08T09:51:10.177Z,0.34
2023-03-08T09:52:10.176Z,0.45
2023-03-08T09:53:10.159Z,0.52
2023-03-08T09:54:10.486Z,0.52
2023-03-08T09:55:09.202Z,0.56
2023-03-08T09:56:10.127Z,0.49
2023-03-08T09:57:10.277Z,0.50
2023-03-08T09:58:10.116Z,0.50
2023-03-08T09:59:10.486Z,0.51
2023-03-08T10:00:10.092Z,0.54
2023-03-08T10:01:10.235Z,0.54
2023-03-08T10:02:10.073Z,0.53
2023-03-08T10:03:10.519Z,0.63
2023-03-08T10:04:10.100Z,0.73
2023-03-08T10:05:13.588Z,0.66
2023-03-08T10:06:10.032Z,0.66
2023-03-08T10:07:10.027Z,0.63
2023-03-08T10:08:10.025Z,0.68
2023-03-08T10:09:10.007Z,0.68
2023-03-08T10:10:10.486Z,0.83
2023-03-08T10:11:09.991Z,0.78
2023-03-08T10:12:13.468Z,0.65
2023-03-08T10:13:09.997Z,0.65
2023-03-08T10:14:10.906Z,0.67
2023-03-08T10:15:10.485Z,0.67
2023-03-08T10:16:09.941Z,0.70
2023-03-08T10:17:10.395Z,0.64
2023-03-08T10:18:09.931Z,0.70
2023-03-08T10:19:09.985Z,0.70
2023-03-08T10:20:10.273Z,0.64
2023-03-08T10:21:10.594Z,0.66
2023-03-08T10:22:09.891Z,0.63
2023-03-08T10:23:09.883Z,1.04
2023-03-08T10:24:09.873Z,1.15
2023-03-08T10:25:09.865Z,1.28
2023-03-08T10:26:09.863Z,1.25
2023-03-08T10:27:09.996Z,1.45
2023-03-08T10:28:09.836Z,1.43
2023-03-08T10:29:09.885Z,1.62
2023-03-08T10:30:09.824Z,1.66
2023-03-08T10:31:09.835Z,1.58
2023-03-08T10:32:10.099Z,1.68
2023-03-08T10:33:09.815Z,1.98
2023-03-08T10:34:09.997Z,1.81
2023-03-08T10:35:09.782Z,1.87
2023-03-08T10:36:09.783Z,2.02
2023-03-08T10:37:10.005Z,2.05
2023-03-08T10:38:09.756Z,2.16
2023-03-08T10:39:09.753Z,2.30
2023-03-08T10:40:09.739Z,2.31
2023-03-08T10:41:09.728Z,2.17
2023-03-08T10:42:10.000Z,2.36
2023-03-08T10:43:09.711Z,2.23
2023-03-08T10:44:09.703Z,2.21
2023-03-08T10:45:09.771Z,2.33
2023-03-08T10:46:10.044Z,1.35
2023-03-08T10:47:09.673Z,1.03
2023-03-08T10:48:09.668Z,0.70
2023-03-08T10:49:09.666Z,0.70
2023-03-08T10:50:09.648Z,0.82
2023-03-08T10:51:09.640Z,1.05
2023-03-08T10:52:09.633Z,1.06
2023-03-08T10:53:09.631Z,1.22
2023-03-08T10:54:09.613Z,1.20
2023-03-08T10:55:09.604Z,1.24
2023-03-08T10:56:09.619Z,1.42
2023-03-08T10:57:09.590Z,1.56
2023-03-08T10:58:09.584Z,1.76
2023-03-08T10:59:09.572Z,1.82
2023-03-08T11:00:12.038Z,2.23
2023-03-08T11:01:10.035Z,2.21
2023-03-08T11:02:09.544Z,2.26
2023-03-08T11:03:09.538Z,2.33
2023-03-08T11:04:09.529Z,2.47
2023-03-08T11:05:09.518Z,2.97
2023-03-08T11:06:12.197Z,3.15
2023-03-08T11:07:09.498Z,3.15
2023-03-08T11:08:09.588Z,3.17
2023-03-08T11:09:09.481Z,3.20
2023-03-08T11:10:09.510Z,3.35
2023-03-08T11:11:09.498Z,3.63
2023-03-08T11:12:11.097Z,3.53
2023-03-08T11:13:09.444Z,3.54
2023-03-08T11:14:09.444Z,3.56
2023-03-08T11:15:09.425Z,3.61
2023-03-08T11:16:09.471Z,3.59
2023-03-08T11:17:09.445Z,3.68
2023-03-08T11:18:11.450Z,3.61
2023-03-08T11:19:09.532Z,3.62
2023-03-08T11:20:09.386Z,3.63
2023-03-08T11:21:09.380Z,3.71
2023-03-08T11:22:09.367Z,3.74
2023-03-08T11:23:09.513Z,4.15
2023-03-08T11:24:09.392Z,4.12
2023-03-08T11:25:09.606Z,4.05
2023-03-08T11:26:09.339Z,4.22
2023-03-08T11:27:09.408Z,3.84
2023-03-08T11:28:09.469Z,3.88
2023-03-08T11:29:09.340Z,4.11
2023-03-08T11:30:11.691Z,4.40
2023-03-08T11:31:09.333Z,4.40
2023-03-08T11:32:09.345Z,4.39
2023-03-08T11:33:09.708Z,4.10
2023-03-08T11:34:09.341Z,4.14
2023-03-08T11:35:09.258Z,4.61
2023-03-08T11:36:10.960Z,4.24
2023-03-08T11:37:09.247Z,4.21
2023-03-08T11:38:09.223Z,3.87
2023-03-08T11:39:09.217Z,3.91
2023-03-08T11:40:09.211Z,3.98
2023-03-08T11:41:09.545Z,3.94
2023-03-08T11:42:10.973Z,3.78
2023-03-08T11:43:09.216Z,3.78
2023-03-08T11:44:09.649Z,3.84
2023-03-08T11:45:09.715Z,3.92
2023-03-08T11:46:09.567Z,3.79
2023-03-08T11:47:09.144Z,3.46
2023-03-08T11:48:10.836Z,4.20
2023-03-08T11:49:09.590Z,4.21
2023-03-08T11:50:09.117Z,3.77
2023-03-08T11:51:09.548Z,3.50
2023-03-08T11:52:09.554Z,3.54
2023-03-08T11:53:09.091Z,3.91
2023-03-08T11:54:09.084Z,3.55
2023-03-08T11:55:09.107Z,3.58
2023-03-08T11:56:09.067Z,3.52
2023-03-08T11:57:09.053Z,3.04
2023-03-08T11:58:09.047Z,3.11
2023-03-08T11:59:09.575Z,3.56
2023-03-08T12:00:09.027Z,3.11
2023-03-08T12:01:09.020Z,2.70
2023-03-08T12:02:09.011Z,2.68
2023-03-08T12:03:09.073Z,2.64
2023-03-08T12:04:09.191Z,2.80
2023-03-08T12:05:09.057Z,2.94
2023-03-08T12:06:22.723Z,2.89
2023-03-08T12:07:09.105Z,2.90
2023-03-08T12:08:08.986Z,2.94
2023-03-08T12:09:08.999Z,3.07
2023-03-08T12:10:08.989Z,3.23
2023-03-08T12:11:08.930Z,3.44
2023-03-08T12:12:09.030Z,3.37
2023-03-08T12:13:08.914Z,1.47
2023-03-08T12:14:08.903Z,1.01
2023-03-08T12:15:08.931Z,1.21
2023-03-08T12:16:08.911Z,1.43
2023-03-08T12:17:09.179Z,1.65
2023-03-08T12:18:08.871Z,1.58
2023-03-08T12:19:08.890Z,2.28
2023-03-08T12:20:08.848Z,1.22
2023-03-08T12:21:08.956Z,1.00
2023-03-08T12:22:09.036Z,3.91
2023-03-08T12:23:08.964Z,5.15
2023-03-08T12:24:09.105Z,12.24
2023-03-08T12:25:08.805Z,32.58
2023-03-08T12:26:08.794Z,57.95
2023-03-08T12:27:08.809Z,76.09
2023-03-08T12:28:08.814Z,69.94
2023-03-08T12:29:08.822Z,63.93
2023-03-08T12:30:08.771Z,50.30
2023-03-08T12:31:21.432Z,51.55
2023-03-08T12:32:09.257Z,44.02
2023-03-08T12:33:08.853Z,41.48
2023-03-08T12:34:11.326Z,30.37
2023-03-08T12:35:08.729Z,24.41
2023-03-08T12:36:08.812Z,17.37
2023-03-08T12:37:09.103Z,13.41
2023-03-08T12:38:08.770Z,10.72
2023-03-08T12:39:09.189Z,10.32
2023-03-08T12:40:08.715Z,7.70
2023-03-08T12:41:08.704Z,6.20
2023-03-08T12:42:09.065Z,5.39
2023-03-08T12:43:08.649Z,4.36
2023-03-08T12:44:08.645Z,3.82
2023-03-08T12:45:08.632Z,2.98
2023-03-08T12:46:08.738Z,2.84
2023-03-08T12:47:08.632Z,2.74
2023-03-08T12:48:08.615Z,2.65
2023-03-08T12:49:08.602Z,2.16
2023-03-08T12:50:08.591Z,2.08
2023-03-08T12:51:09.075Z,1.72
2023-03-08T12:52:08.609Z,1.47
2023-03-08T12:53:08.593Z,1.37
2023-03-08T12:54:09.083Z,1.27
2023-03-08T12:55:08.548Z,1.19
2023-03-08T12:56:08.538Z,1.11
2023-03-08T12:57:08.530Z,1.01
2023-03-08T12:58:08.518Z,0.96
2023-03-08T12:59:08.514Z,0.83
2023-03-08T13:00:08.508Z,0.84
2023-03-08T13:01:08.596Z,0.77
2023-03-08T13:02:08.498Z,0.75
2023-03-08T13:03:08.579Z,0.84
2023-03-08T13:04:08.491Z,0.75
2023-03-08T13:05:08.513Z,0.73
2023-03-08T13:06:08.452Z,0.46
2023-03-08T13:07:08.448Z,0.42
2023-03-08T13:08:08.435Z,0.50
2023-03-08T13:09:08.505Z,0.63
2023-03-08T13:10:08.413Z,0.94
2023-03-08T13:11:08.560Z,1.01
2023-03-08T13:12:08.398Z,1.03
2023-03-08T13:13:08.410Z,1.21
2023-03-08T13:14:08.383Z,1.27
2023-03-08T13:15:08.414Z,1.47
2023-03-08T13:16:08.368Z,1.53
2023-03-08T13:17:08.358Z,1.45
2023-03-08T13:18:08.368Z,2.03
2023-03-08T13:19:08.407Z,2.17
2023-03-08T13:20:08.400Z,2.26
2023-03-08T13:21:08.567Z,2.27
2023-03-08T13:22:08.313Z,2.27
2023-03-08T13:23:08.468Z,2.13
2023-03-08T13:24:08.292Z,2.15
2023-03-08T13:25:08.367Z,2.37
2023-03-08T13:26:08.327Z,2.66
2023-03-08T13:27:08.268Z,2.77
2023-03-08T13:28:08.263Z,2.78
2023-03-08T13:29:08.356Z,2.98
2023-03-08T13:30:08.257Z,3.28
2023-03-08T13:31:08.320Z,3.26
2023-03-08T13:32:08.247Z,3.51
2023-03-08T13:33:08.213Z,3.09
2023-03-08T13:34:08.207Z,3.12
2023-03-08T13:35:08.207Z,3.15
2023-03-08T13:36:08.257Z,3.11
2023-03-08T13:37:08.184Z,3.08
2023-03-08T13:38:08.171Z,3.16
2023-03-08T13:39:08.164Z,3.31
2023-03-08T13:40:08.158Z,3.45
2023-03-08T13:41:08.631Z,3.63
2023-03-08T13:42:08.163Z,3.57
2023-03-08T13:43:08.152Z,2.88
2023-03-08T13:44:08.147Z,3.19
2023-03-08T13:45:08.111Z,3.52
2023-03-08T13:46:08.230Z,3.52
2023-03-08T13:47:09.562Z,3.47
2023-03-08T13:48:08.085Z,3.53
2023-03-08T13:49:08.073Z,3.80
2023-03-08T13:50:08.070Z,3.82
2023-03-08T13:51:08.146Z,3.10
2023-03-08T13:52:08.049Z,2.82
2023-03-08T13:53:08.058Z,3.39
2023-03-08T13:54:08.117Z,3.08
2023-03-08T13:55:08.122Z,2.81
2023-03-08T13:56:08.039Z,2.51
2023-03-08T13:57:08.061Z,2.26
2023-03-08T13:58:08.058Z,1.91
2023-03-08T13:59:08.040Z,2.03
2023-03-08T14:00:08.045Z,1.94
2023-03-08T14:01:08.011Z,2.44
2023-03-08T14:02:08.097Z,2.60
2023-03-08T14:03:08.063Z,2.57
2023-03-08T14:04:08.212Z,2.50
2023-03-08T14:05:07.941Z,2.13
2023-03-08T14:06:08.049Z,2.32
2023-03-08T14:07:07.918Z,2.43
2023-03-08T14:08:07.931Z,2.42
2023-03-08T14:09:07.901Z,2.21
2023-03-08T14:10:07.890Z,2.07
2023-03-08T14:11:07.881Z,2.24
2023-03-08T14:12:07.912Z,2.11
2023-03-08T14:13:07.904Z,2.22
2023-03-08T14:14:07.896Z,1.82
2023-03-08T14:15:07.921Z,1.81
2023-03-08T14:16:07.932Z,1.95
2023-03-08T14:17:07.875Z,1.89
2023-03-08T14:18:07.884Z,1.95
2023-03-08T14:19:07.956Z,1.96
2023-03-08T14:20:07.842Z,1.93
2023-03-08T14:21:07.933Z,1.69
2023-03-08T14:22:07.803Z,1.60
2023-03-08T14:23:07.834Z,1.51
2023-03-08T14:24:07.780Z,1.49
2023-03-08T14:25:07.836Z,1.44
2023-03-08T14:26:07.755Z,1.38
2023-03-08T14:27:07.742Z,1.38
2023-03-08T14:28:07.769Z,1.29
2023-03-08T14:29:08.133Z,1.13
2023-03-08T14:30:07.713Z,1.40
2023-03-08T14:31:07.848Z,1.44
2023-03-08T14:32:07.892Z,1.26
2023-03-08T14:33:07.687Z,1.22
2023-03-08T14:34:08.082Z,1.18
2023-03-08T14:35:07.688Z,1.16
2023-03-08T14:36:07.710Z,1.17
2023-03-08T14:37:07.653Z,1.15
2023-03-08T14:38:07.643Z,1.20
2023-03-08T14:39:08.088Z,1.18
2023-03-08T14:40:07.624Z,1.15
2023-03-08T14:41:07.622Z,1.11
2023-03-08T14:42:07.698Z,1.22
2023-03-08T14:43:07.603Z,1.13
2023-03-08T14:44:07.600Z,1.19
2023-03-08T14:45:07.617Z,1.20
2023-03-08T14:46:07.685Z,1.21
2023-03-08T14:47:07.565Z,1.16
2023-03-08T14:48:07.552Z,1.21
2023-03-08T14:49:07.594Z,1.27
2023-03-08T14:50:07.596Z,1.30
2023-03-08T14:51:07.582Z,1.28
2023-03-08T14:52:09.371Z,1.27
2023-03-08T14:53:07.589Z,1.38
2023-03-08T14:54:07.591Z,1.23
2023-03-08T14:55:07.486Z,1.20
2023-03-08T14:56:07.485Z,1.12
2023-03-08T14:57:07.471Z,1.08
2023-03-08T14:58:07.465Z,1.09
2023-03-08T14:59:10.412Z,1.07
2023-03-08T15:00:07.784Z,1.07
2023-03-08T15:01:07.472Z,1.08
2023-03-08T15:02:07.654Z,1.09
2023-03-08T15:03:07.425Z,1.09
2023-03-08T15:04:07.443Z,1.07
2023-03-08T15:05:07.400Z,1.08
2023-03-08T15:06:07.395Z,1.03
2023-03-08T15:07:07.385Z,1.09
2023-03-08T15:08:07.374Z,1.13
2023-03-08T15:09:07.367Z,1.15
2023-03-08T15:10:07.359Z,1.05
2023-03-08T15:11:07.359Z,1.01
2023-03-08T15:12:07.338Z,0.87
2023-03-08T15:13:07.350Z,0.82
2023-03-08T15:14:07.321Z,0.91
2023-03-08T15:15:07.309Z,0.94
2023-03-08T15:16:07.368Z,0.88
2023-03-08T15:17:07.382Z,0.84
2023-03-08T15:18:07.289Z,1.03
2023-03-08T15:19:07.597Z,1.33
2023-03-08T15:20:07.262Z,1.32
2023-03-08T15:21:14.226Z,1.48
2023-03-08T15:22:07.296Z,1.48
2023-03-08T15:23:07.247Z,1.52
2023-03-08T15:25:07.223Z,1.59
2023-03-08T15:34:07.700Z,1.42
2023-03-08T18:04:06.115Z,3.71
2023-03-08T18:05:06.195Z,3.74
2023-03-08T18:06:06.252Z,3.81
2023-03-08T18:07:06.020Z,3.88
2023-03-08T18:08:05.999Z,3.83
2023-03-08T18:09:06.010Z,3.79
2023-03-08T18:10:05.983Z,3.73
2023-03-08T18:11:06.534Z,3.76
2023-03-08T18:12:05.971Z,3.76
2023-03-08T18:13:05.992Z,3.72
2023-03-08T18:14:05.963Z,3.72
2023-03-08T18:15:05.938Z,3.86
2023-03-08T18:16:06.001Z,3.82
2023-03-08T18:17:05.925Z,3.81
2023-03-08T18:18:05.912Z,3.87
2023-03-08T18:19:05.912Z,3.83
2023-03-08T18:20:05.902Z,3.79
2023-03-08T18:21:13.072Z,3.81
2023-03-08T18:22:05.884Z,3.82
2023-03-08T18:23:05.869Z,3.83
2023-03-08T18:24:05.871Z,3.84
2023-03-08T18:25:05.872Z,3.79
2023-03-08T18:26:05.848Z,3.72
2023-03-08T18:27:05.844Z,3.72
2023-03-08T18:28:05.837Z,3.72
2023-03-08T18:29:05.924Z,3.67
2023-03-08T18:30:05.809Z,3.61
2023-03-08T18:31:05.850Z,3.64
2023-03-08T18:32:05.928Z,3.63
2023-03-08T18:33:06.704Z,3.59
2023-03-08T18:34:05.771Z,3.72
2023-03-08T18:35:05.762Z,3.61
2023-03-08T18:36:05.768Z,3.72
2023-03-08T18:37:05.744Z,3.70
2023-03-08T18:38:05.749Z,3.67
2023-03-08T18:39:05.801Z,3.59
2023-03-08T18:40:05.725Z,3.66
2023-03-08T18:41:05.713Z,3.51
2023-03-08T18:42:05.704Z,3.57
2023-03-08T18:43:05.700Z,3.55
2023-03-08T18:44:05.683Z,3.50
2023-03-08T18:45:05.759Z,3.56
2023-03-08T18:46:05.675Z,3.53
2023-03-08T18:47:05.660Z,3.51
2023-03-08T18:48:05.657Z,3.52
2023-03-08T18:49:05.639Z,3.54
2023-03-08T18:50:05.623Z,3.59
2023-03-08T18:51:05.619Z,3.54
2023-03-08T18:52:05.608Z,3.51
2023-03-08T18:53:05.598Z,3.57
2023-03-08T18:54:05.627Z,3.49
2023-03-08T18:55:05.579Z,3.53
2023-03-08T18:56:05.870Z,3.47
2023-03-08T18:57:05.579Z,3.47
2023-03-08T18:58:05.556Z,3.50
2023-03-08T18:59:05.547Z,3.55
2023-03-08T19:00:05.535Z,3.60
2023-03-08T19:01:05.633Z,3.53
2023-03-08T19:02:05.558Z,3.59
2023-03-08T19:03:05.513Z,3.59
2023-03-08T19:04:05.517Z,3.50
2023-03-08T19:05:05.497Z,3.53
2023-03-08T19:06:05.489Z,3.56
2023-03-08T19:07:05.478Z,3.62
2023-03-08T19:08:05.470Z,3.54
2023-03-08T19:09:05.460Z,3.51
2023-03-08T19:10:05.468Z,3.62
2023-03-08T19:11:05.445Z,3.61
2023-03-08T19:12:05.440Z,3.59
2023-03-08T19:13:05.425Z,3.52
2023-03-08T19:14:05.420Z,3.52
2023-03-08T19:15:05.411Z,3.48
2023-03-08T19:16:05.426Z,3.44
2023-03-08T19:17:05.421Z,3.36
2023-03-08T19:18:05.386Z,3.44
2023-03-08T19:19:05.375Z,3.43
2023-03-08T19:20:05.361Z,3.50
2023-03-08T19:21:05.358Z,3.52
2023-03-08T19:22:05.366Z,3.44
2023-03-08T19:23:05.344Z,3.46
2023-03-08T19:24:05.342Z,3.44
2023-03-08T19:25:05.324Z,3.39
2023-03-08T19:26:05.313Z,3.45
2023-03-08T19:27:05.309Z,3.44
2023-03-08T19:28:05.298Z,3.44
2023-03-08T19:29:05.376Z,3.46
2023-03-08T19:30:05.277Z,3.38
2023-03-08T19:31:05.267Z,3.39
2023-03-08T19:32:05.294Z,3.48
2023-03-08T19:33:05.272Z,3.51
2023-03-08T19:34:05.247Z,3.43
2023-03-08T19:35:05.233Z,3.38
2023-03-08T19:36:05.297Z,3.46
2023-03-08T19:37:05.217Z,3.42
2023-03-08T19:38:05.213Z,3.54
2023-03-08T19:39:05.222Z,3.42
2023-03-08T19:40:05.195Z,3.51
2023-03-08T19:41:05.181Z,3.53
2023-03-08T19:42:05.172Z,3.51
2023-03-08T19:43:05.163Z,3.55
2023-03-08T19:44:05.156Z,3.47
2023-03-08T19:45:05.151Z,3.50
2023-03-08T19:46:05.175Z,3.51
2023-03-08T19:47:05.144Z,3.52
2023-03-08T19:48:05.122Z,3.51
2023-03-08T19:49:05.257Z,3.51
2023-03-08T19:50:05.109Z,3.44
2023-03-08T19:51:05.144Z,3.45
2023-03-08T19:52:05.109Z,3.50
2023-03-08T19:53:05.078Z,3.41
2023-03-08T19:54:05.074Z,3.49
2023-03-08T19:55:05.090Z,3.51
2023-03-08T19:56:05.060Z,3.47
2023-03-08T19:57:05.056Z,3.43
2023-03-08T19:58:05.039Z,3.39
2023-03-08T19:59:05.030Z,3.48
2023-03-08T20:00:05.020Z,3.46
2023-03-08T20:01:05.047Z,3.52
2023-03-08T20:02:04.999Z,3.50
2023-03-08T20:03:04.996Z,3.49
2023-03-08T20:04:04.992Z,3.46
2023-03-08T20:05:05.003Z,3.52
2023-03-08T20:06:04.979Z,3.52
2023-03-08T20:07:05.006Z,3.51
2023-03-08T20:08:04.951Z,3.45
2023-03-08T20:09:04.941Z,3.46
2023-03-08T20:10:15.777Z,3.41
2023-03-08T20:11:04.925Z,3.41
2023-03-08T20:12:04.913Z,3.41
2023-03-08T20:13:04.946Z,3.34
2023-03-08T20:14:04.897Z,3.37
2023-03-08T20:15:04.887Z,3.32
2023-03-08T20:16:04.878Z,3.27
2023-03-08T20:17:04.972Z,3.27
2023-03-08T20:18:04.913Z,3.27
2023-03-08T20:19:04.913Z,3.28
2023-03-08T20:20:04.845Z,3.14
2023-03-08T20:21:04.872Z,3.13
2023-03-08T20:22:04.831Z,3.21
2023-03-08T20:23:04.814Z,3.19
2023-03-08T20:24:04.807Z,3.20
2023-03-08T20:25:04.800Z,3.15
2023-03-08T20:26:05.371Z,3.06
2023-03-08T20:27:04.785Z,3.02
2023-03-08T20:28:04.770Z,3.02
2023-03-08T20:29:04.766Z,2.95
2023-03-08T20:30:04.752Z,2.94
2023-03-08T20:31:04.764Z,2.98
2023-03-08T20:32:04.778Z,3.04
2023-03-08T20:33:04.724Z,3.08
2023-03-08T20:34:04.732Z,3.07
2023-03-08T20:35:04.706Z,3.04
2023-03-08T20:36:04.810Z,2.92
2023-03-08T20:37:04.709Z,2.95
2023-03-08T20:38:04.682Z,2.87
2023-03-08T20:39:04.677Z,2.90
2023-03-08T20:40:04.692Z,2.92
2023-03-08T20:41:04.659Z,2.87
2023-03-08T20:42:04.650Z,2.86
2023-03-08T20:43:04.639Z,2.81
2023-03-08T20:44:04.632Z,2.87
2023-03-08T20:45:04.628Z,2.95
2023-03-08T20:46:04.726Z,2.89
2023-03-08T20:47:04.597Z,2.86
2023-03-08T20:48:04.597Z,2.82
2023-03-08T20:49:04.586Z,2.88
2023-03-08T20:50:04.578Z,2.85
2023-03-08T20:51:04.569Z,2.78
2023-03-08T20:52:04.584Z,2.79
2023-03-08T20:53:04.574Z,2.81
2023-03-08T20:54:04.543Z,2.80
2023-03-08T20:55:04.825Z,2.75
2023-03-08T20:56:04.523Z,2.74
2023-03-08T20:57:04.525Z,2.73
2023-03-08T20:58:04.506Z,2.83
2023-03-08T20:59:04.505Z,2.76
2023-03-08T21:00:04.487Z,2.71
2023-03-08T21:01:04.519Z,2.73
2023-03-08T21:02:04.469Z,2.71
2023-03-08T21:03:04.464Z,2.76
2023-03-08T21:04:04.472Z,2.72
2023-03-08T21:05:04.448Z,2.73
2023-03-08T21:06:04.436Z,2.67
2023-03-08T21:07:04.428Z,2.70
2023-03-08T21:08:04.424Z,2.67
2023-03-08T21:09:04.469Z,2.69
2023-03-08T21:10:04.411Z,2.68
2023-03-08T21:11:04.396Z,2.72
2023-03-08T21:12:04.391Z,2.72
2023-03-08T21:13:04.375Z,2.61
2023-03-08T21:14:04.400Z,2.64
2023-03-08T21:15:05.188Z,2.61
2023-03-08T21:16:04.481Z,2.61
2023-03-08T21:17:04.347Z,2.60
2023-03-08T21:18:04.334Z,2.57
2023-03-08T21:19:04.398Z,2.57
2023-03-08T21:20:04.314Z,2.60
2023-03-08T21:21:04.303Z,2.57
2023-03-08T21:22:04.332Z,2.58
2023-03-08T21:23:04.292Z,2.55
2023-03-08T21:24:04.323Z,2.56
2023-03-08T21:25:04.306Z,2.57
2023-03-08T21:26:04.395Z,2.59
2023-03-08T21:27:04.274Z,2.53
2023-03-08T21:28:04.248Z,2.55
2023-03-08T21:29:04.233Z,2.46
2023-03-08T21:30:04.227Z,2.45
2023-03-08T21:31:04.285Z,2.47
2023-03-08T21:32:04.215Z,2.51
2023-03-08T21:33:04.195Z,2.55
2023-03-08T21:34:04.189Z,2.47
2023-03-08T21:35:04.235Z,2.47
2023-03-08T21:36:04.249Z,2.54
2023-03-08T21:37:04.160Z,2.45
2023-03-08T21:38:04.161Z,2.42
2023-03-08T21:39:04.148Z,2.43
2023-03-08T21:40:05.113Z,2.45
2023-03-08T21:41:04.156Z,2.44
2023-03-08T21:42:04.119Z,2.46
2023-03-08T21:43:04.105Z,2.36
2023-03-08T21:44:04.101Z,2.36
2023-03-08T21:45:04.090Z,2.32
2023-03-08T21:46:04.141Z,2.32
2023-03-08T21:47:04.069Z,2.33
2023-03-08T21:48:04.063Z,2.30
2023-03-08T21:49:04.080Z,2.34
2023-03-08T21:50:04.060Z,2.35
2023-03-08T21:51:04.047Z,2.33
2023-03-08T21:52:04.030Z,2.34
2023-03-08T21:53:04.030Z,2.37
2023-03-08T21:54:04.020Z,2.34
2023-03-08T21:55:04.006Z,2.31
2023-03-08T21:56:03.995Z,2.30
2023-03-08T21:57:04.008Z,2.31
2023-03-08T21:58:03.972Z,2.36
2023-03-08T21:59:03.984Z,2.36
2023-03-08T22:00:03.967Z,2.31
2023-03-08T22:01:03.947Z,2.29
2023-03-08T22:02:03.972Z,2.31
2023-03-08T22:03:04.038Z,2.30
2023-03-08T22:04:03.927Z,2.29
2023-03-08T22:05:03.919Z,2.31
2023-03-08T22:06:03.906Z,2.31
2023-03-08T22:07:03.900Z,2.26
2023-03-08T22:08:03.889Z,2.24
2023-03-08T22:09:03.890Z,2.27
2023-03-08T22:10:03.875Z,2.26
2023-03-08T22:11:03.871Z,2.24
2023-03-08T22:12:03.858Z,2.20
2023-03-08T22:13:03.895Z,2.20
2023-03-08T22:14:03.837Z,2.22
2023-03-08T22:15:03.822Z,2.19
2023-03-08T22:16:03.876Z,2.20
2023-03-08T22:17:03.817Z,2.22
2023-03-08T22:18:03.795Z,2.21
2023-03-08T22:19:03.792Z,2.29
2023-03-08T22:20:03.810Z,2.29
2023-03-08T22:21:03.772Z,2.29
2023-03-08T22:22:03.763Z,2.27
2023-03-08T22:23:03.754Z,2.27
2023-03-08T22:24:03.749Z,2.23
2023-03-08T22:25:03.737Z,2.15
2023-03-08T22:26:03.728Z,2.17
2023-03-08T22:27:03.719Z,2.20
2023-03-08T22:28:03.720Z,2.22
2023-03-08T22:29:03.738Z,2.24
2023-03-08T22:30:03.694Z,2.24
2023-03-08T22:31:03.764Z,2.24
2023-03-08T22:32:03.679Z,2.26
2023-03-08T22:33:03.668Z,2.19
2023-03-08T22:34:03.659Z,2.22
2023-03-08T22:35:03.651Z,2.16
2023-03-08T22:36:03.703Z,2.21
2023-03-08T22:37:03.641Z,2.21
2023-03-08T22:38:03.629Z,2.24
2023-03-08T22:39:03.625Z,2.24
2023-03-08T22:40:03.608Z,2.22
2023-03-08T22:41:03.605Z,2.21
2023-03-08T22:42:03.593Z,2.21
2023-03-08T22:43:03.589Z,2.16
2023-03-08T22:44:03.572Z,2.17
2023-03-08T22:45:03.598Z,2.17
2023-03-08T22:46:03.607Z,2.19
2023-03-08T22:47:03.552Z,2.13
2023-03-08T22:48:03.536Z,2.19
2023-03-08T22:49:03.530Z,2.16
2023-03-08T22:50:03.528Z,2.18
2023-03-08T22:51:10.713Z,2.13
2023-03-08T22:52:03.505Z,2.14
2023-03-08T22:53:03.510Z,2.15
2023-03-08T22:54:03.485Z,2.15
2023-03-08T22:55:03.476Z,2.17
2023-03-08T22:56:03.483Z,2.16
2023-03-08T22:57:03.463Z,2.17
2023-03-08T22:58:03.465Z,2.14
2023-03-08T22:59:03.490Z,2.15
2023-03-08T23:00:03.439Z,2.12
2023-03-08T23:01:03.465Z,2.08
2023-03-08T23:02:03.414Z,2.08
2023-03-08T23:03:03.497Z,2.11
2023-03-08T23:04:03.456Z,2.08
2023-03-08T23:05:03.390Z,2.08
2023-03-08T23:06:03.380Z,2.08
2023-03-08T23:07:03.373Z,2.08
2023-03-08T23:08:03.368Z,2.08
2023-03-08T23:09:03.354Z,2.08
2023-03-08T23:10:03.360Z,2.06
2023-03-08T23:11:03.345Z,2.06
2023-03-08T23:12:03.352Z,2.08
2023-03-08T23:13:03.323Z,2.08
2023-03-08T23:14:03.329Z,2.06
2023-03-08T23:15:03.296Z,2.04
2023-03-08T23:16:03.296Z,2.07
2023-03-08T23:17:03.348Z,2.09
2023-03-08T23:18:03.275Z,2.04
2023-03-08T23:19:03.266Z,2.02
2023-03-08T23:20:03.254Z,2.02
2023-03-08T23:21:03.291Z,2.04
2023-03-08T23:22:03.290Z,2.04
2023-03-08T23:23:03.257Z,2.01
2023-03-08T23:24:03.218Z,1.99
2023-03-08T23:25:03.212Z,1.97
2023-03-08T23:26:03.201Z,1.98
2023-03-08T23:27:03.193Z,1.97
2023-03-08T23:28:03.182Z,2.03
2023-03-08T23:29:03.178Z,1.99
2023-03-08T23:30:03.200Z,1.99
2023-03-08T23:31:03.194Z,1.98
2023-03-08T23:32:03.255Z,1.94
2023-03-08T23:33:03.162Z,1.97
2023-03-08T23:34:03.135Z,1.96
2023-03-08T23:35:03.123Z,1.95
2023-03-08T23:36:03.148Z,1.92
2023-03-08T23:37:03.106Z,1.94
2023-03-08T23:38:03.099Z,1.94
2023-03-08T23:39:03.098Z,1.93
2023-03-08T23:40:03.077Z,1.91
2023-03-08T23:41:03.110Z,1.91
2023-03-08T23:42:03.070Z,1.95
2023-03-08T23:43:03.054Z,1.95
2023-03-08T23:44:03.051Z,1.97
2023-03-08T23:45:03.034Z,1.93
2023-03-08T23:46:03.046Z,1.92
2023-03-08T23:47:03.017Z,1.89
2023-03-08T23:48:03.591Z,1.96
2023-03-08T23:49:03.026Z,1.93
2023-03-08T23:50:03.007Z,1.90
2023-03-08T23:51:02.982Z,1.88
2023-03-08T23:52:02.975Z,1.90
2023-03-08T23:53:03.052Z,1.85
2023-03-08T23:54:02.954Z,1.84
2023-03-08T23:55:02.967Z,1.84
2023-03-08T23:56:02.946Z,1.88
2023-03-08T23:57:02.934Z,1.84
2023-03-08T23:58:02.925Z,1.80
2023-03-08T23:59:02.913Z,1.81
